sensor_id;sensor_type;location;lat;lon;timestamp;temperature;humidity
6114;DHT22;3087;48.392;10.836;2023-07-09T00:02:23;23.00;81.40
6114;DHT22;3087;48.392;10.836;2023-07-09T00:04:53;22.90;81.40
6114;DHT22;3087;48.392;10.836;2023-07-09T00:07:32;22.80;81.40
6114;DHT22;3087;48.392;10.836;2023-07-09T00:09:59;22.70;81.80
6114;DHT22;3087;48.392;10.836;2023-07-09T00:12:26;22.50;82.10
6114;DHT22;3087;48.392;10.836;2023-07-09T00:14:52;22.40;81.90
6114;DHT22;3087;48.392;10.836;2023-07-09T00:17:28;22.50;82.10
6114;DHT22;3087;48.392;10.836;2023-07-09T00:19:55;22.30;82.60
6114;DHT22;3087;48.392;10.836;2023-07-09T00:22:30;22.30;82.10
6114;DHT22;3087;48.392;10.836;2023-07-09T00:25:03;22.20;82.60
6114;DHT22;3087;48.392;10.836;2023-07-09T00:27:30;22.20;82.40
6114;DHT22;3087;48.392;10.836;2023-07-09T00:30:02;22.10;82.80
6114;DHT22;3087;48.392;10.836;2023-07-09T00:32:28;21.90;82.90
6114;DHT22;3087;48.392;10.836;2023-07-09T00:34:54;21.90;82.70
6114;DHT22;3087;48.392;10.836;2023-07-09T00:37:23;21.60;82.90
6114;DHT22;3087;48.392;10.836;2023-07-09T00:40:02;21.60;83.90
6114;DHT22;3087;48.392;10.836;2023-07-09T00:42:28;21.70;83.30
6114;DHT22;3087;48.392;10.836;2023-07-09T00:44:54;21.90;83.10
6114;DHT22;3087;48.392;10.836;2023-07-09T00:47:38;22.20;82.50
6114;DHT22;3087;48.392;10.836;2023-07-09T00:52:59;22.20;82.50
6114;DHT22;3087;48.392;10.836;2023-07-09T00:55:41;21.90;82.50
6114;DHT22;3087;48.392;10.836;2023-07-09T00:58:22;21.70;83.50
6114;DHT22;3087;48.392;10.836;2023-07-09T01:01:00;21.80;84.60
6114;DHT22;3087;48.392;10.836;2023-07-09T01:03:34;21.60;84.10
6114;DHT22;3087;48.392;10.836;2023-07-09T01:06:01;21.50;84.50
6114;DHT22;3087;48.392;10.836;2023-07-09T01:08:32;21.40;84.40
6114;DHT22;3087;48.392;10.836;2023-07-09T01:10:59;21.40;85.10
6114;DHT22;3087;48.392;10.836;2023-07-09T01:13:29;21.40;85.40
6114;DHT22;3087;48.392;10.836;2023-07-09T01:16:03;21.40;85.00
6114;DHT22;3087;48.392;10.836;2023-07-09T01:18:45;21.30;85.00
6114;DHT22;3087;48.392;10.836;2023-07-09T01:21:11;21.20;85.20
6114;DHT22;3087;48.392;10.836;2023-07-09T01:23:43;21.20;85.90
6114;DHT22;3087;48.392;10.836;2023-07-09T01:26:11;21.10;85.80
6114;DHT22;3087;48.392;10.836;2023-07-09T01:28:37;21.10;85.80
6114;DHT22;3087;48.392;10.836;2023-07-09T01:31:03;21.10;85.90
6114;DHT22;3087;48.392;10.836;2023-07-09T01:33:30;21.00;86.00
6114;DHT22;3087;48.392;10.836;2023-07-09T01:35:56;21.00;86.30
6114;DHT22;3087;48.392;10.836;2023-07-09T01:41:32;21.00;86.30
6114;DHT22;3087;48.392;10.836;2023-07-09T01:44:05;20.90;86.50
6114;DHT22;3087;48.392;10.836;2023-07-09T01:46:32;20.80;85.70
6114;DHT22;3087;48.392;10.836;2023-07-09T01:48:58;21.00;85.40
6114;DHT22;3087;48.392;10.836;2023-07-09T01:51:24;21.10;85.70
6114;DHT22;3087;48.392;10.836;2023-07-09T01:53:54;21.00;85.60
6114;DHT22;3087;48.392;10.836;2023-07-09T01:56:19;21.00;85.90
6114;DHT22;3087;48.392;10.836;2023-07-09T01:58:49;20.80;86.50
6114;DHT22;3087;48.392;10.836;2023-07-09T02:01:18;20.80;86.70
6114;DHT22;3087;48.392;10.836;2023-07-09T02:03:48;20.80;87.70
6114;DHT22;3087;48.392;10.836;2023-07-09T02:06:23;20.90;87.40
6114;DHT22;3087;48.392;10.836;2023-07-09T02:08:50;20.80;87.80
6114;DHT22;3087;48.392;10.836;2023-07-09T02:11:16;20.80;88.80
6114;DHT22;3087;48.392;10.836;2023-07-09T02:13:42;20.80;88.10
6114;DHT22;3087;48.392;10.836;2023-07-09T02:16:08;20.80;87.70
6114;DHT22;3087;48.392;10.836;2023-07-09T02:18:34;20.80;88.00
6114;DHT22;3087;48.392;10.836;2023-07-09T02:21:00;20.80;89.10
6114;DHT22;3087;48.392;10.836;2023-07-09T02:23:27;20.70;88.80
6114;DHT22;3087;48.392;10.836;2023-07-09T02:25:53;20.70;88.90
6114;DHT22;3087;48.392;10.836;2023-07-09T02:28:19;20.60;88.80
6114;DHT22;3087;48.392;10.836;2023-07-09T02:30:45;20.50;89.00
6114;DHT22;3087;48.392;10.836;2023-07-09T02:33:11;20.50;89.40
6114;DHT22;3087;48.392;10.836;2023-07-09T02:35:37;20.50;89.80
6114;DHT22;3087;48.392;10.836;2023-07-09T02:38:03;20.50;90.00
6114;DHT22;3087;48.392;10.836;2023-07-09T02:40:29;20.40;90.00
6114;DHT22;3087;48.392;10.836;2023-07-09T02:42:55;20.40;90.10
6114;DHT22;3087;48.392;10.836;2023-07-09T02:45:21;20.10;90.20
6114;DHT22;3087;48.392;10.836;2023-07-09T02:47:47;20.60;89.60
6114;DHT22;3087;48.392;10.836;2023-07-09T02:50:13;20.50;89.00
6114;DHT22;3087;48.392;10.836;2023-07-09T02:52:39;20.40;90.20
6114;DHT22;3087;48.392;10.836;2023-07-09T02:55:05;20.20;89.60
6114;DHT22;3087;48.392;10.836;2023-07-09T02:57:37;20.10;89.80
6114;DHT22;3087;48.392;10.836;2023-07-09T03:00:03;19.90;90.10
6114;DHT22;3087;48.392;10.836;2023-07-09T03:02:31;19.80;90.20
6114;DHT22;3087;48.392;10.836;2023-07-09T03:04:57;19.70;90.30
6114;DHT22;3087;48.392;10.836;2023-07-09T03:07:22;19.50;90.20
6114;DHT22;3087;48.392;10.836;2023-07-09T03:09:48;19.50;90.30
6114;DHT22;3087;48.392;10.836;2023-07-09T03:12:14;19.50;90.30
6114;DHT22;3087;48.392;10.836;2023-07-09T03:14:39;19.50;90.40
6114;DHT22;3087;48.392;10.836;2023-07-09T03:17:05;19.40;91.00
6114;DHT22;3087;48.392;10.836;2023-07-09T03:19:31;19.50;90.70
6114;DHT22;3087;48.392;10.836;2023-07-09T03:21:59;19.50;90.70
6114;DHT22;3087;48.392;10.836;2023-07-09T03:24:25;19.50;90.60
6114;DHT22;3087;48.392;10.836;2023-07-09T03:26:50;19.60;91.00
6114;DHT22;3087;48.392;10.836;2023-07-09T03:29:16;19.70;91.20
6114;DHT22;3087;48.392;10.836;2023-07-09T03:31:42;19.70;90.80
6114;DHT22;3087;48.392;10.836;2023-07-09T03:34:08;19.80;91.00
6114;DHT22;3087;48.392;10.836;2023-07-09T03:36:34;19.80;90.80
6114;DHT22;3087;48.392;10.836;2023-07-09T03:39:02;19.80;90.70
6114;DHT22;3087;48.392;10.836;2023-07-09T03:41:28;19.80;90.80
6114;DHT22;3087;48.392;10.836;2023-07-09T03:43:54;19.70;91.00
6114;DHT22;3087;48.392;10.836;2023-07-09T03:46:20;19.60;91.10
6114;DHT22;3087;48.392;10.836;2023-07-09T03:48:47;19.60;91.10
6114;DHT22;3087;48.392;10.836;2023-07-09T03:51:12;18.60;90.80
6114;DHT22;3087;48.392;10.836;2023-07-09T03:53:38;19.50;91.20
6114;DHT22;3087;48.392;10.836;2023-07-09T03:56:04;19.60;91.20
6114;DHT22;3087;48.392;10.836;2023-07-09T03:58:30;19.50;91.30
6114;DHT22;3087;48.392;10.836;2023-07-09T04:00:56;19.40;91.30
6114;DHT22;3087;48.392;10.836;2023-07-09T04:03:22;19.40;91.50
6114;DHT22;3087;48.392;10.836;2023-07-09T04:05:49;19.40;91.40
6114;DHT22;3087;48.392;10.836;2023-07-09T04:08:15;19.30;91.50
6114;DHT22;3087;48.392;10.836;2023-07-09T04:10:41;19.30;91.60
6114;DHT22;3087;48.392;10.836;2023-07-09T04:13:07;19.30;92.00
6114;DHT22;3087;48.392;10.836;2023-07-09T04:15:32;19.60;91.70
6114;DHT22;3087;48.392;10.836;2023-07-09T04:17:58;19.70;91.90
6114;DHT22;3087;48.392;10.836;2023-07-09T04:20:24;19.80;92.00
6114;DHT22;3087;48.392;10.836;2023-07-09T04:22:50;20.00;91.60
6114;DHT22;3087;48.392;10.836;2023-07-09T04:25:15;20.00;91.40
6114;DHT22;3087;48.392;10.836;2023-07-09T04:27:41;19.90;91.50
6114;DHT22;3087;48.392;10.836;2023-07-09T04:30:12;19.90;91.80
6114;DHT22;3087;48.392;10.836;2023-07-09T04:32:41;19.80;91.60
6114;DHT22;3087;48.392;10.836;2023-07-09T04:35:13;19.80;92.10
6114;DHT22;3087;48.392;10.836;2023-07-09T04:37:39;19.80;91.80
6114;DHT22;3087;48.392;10.836;2023-07-09T04:40:07;19.80;91.80
6114;DHT22;3087;48.392;10.836;2023-07-09T04:42:36;19.90;91.80
6114;DHT22;3087;48.392;10.836;2023-07-09T04:45:03;20.00;92.10
6114;DHT22;3087;48.392;10.836;2023-07-09T04:47:29;20.20;92.00
6114;DHT22;3087;48.392;10.836;2023-07-09T04:49:55;20.30;92.10
6114;DHT22;3087;48.392;10.836;2023-07-09T04:52:21;20.40;92.00
6114;DHT22;3087;48.392;10.836;2023-07-09T04:54:47;20.40;91.90
6114;DHT22;3087;48.392;10.836;2023-07-09T04:57:16;20.50;92.00
6114;DHT22;3087;48.392;10.836;2023-07-09T04:59:42;20.50;92.10
6114;DHT22;3087;48.392;10.836;2023-07-09T05:02:08;20.60;91.70
6114;DHT22;3087;48.392;10.836;2023-07-09T05:04:34;20.60;91.60
6114;DHT22;3087;48.392;10.836;2023-07-09T05:06:59;20.60;92.00
6114;DHT22;3087;48.392;10.836;2023-07-09T05:09:25;20.60;91.70
6114;DHT22;3087;48.392;10.836;2023-07-09T05:11:51;20.60;91.60
6114;DHT22;3087;48.392;10.836;2023-07-09T05:14:18;20.70;91.70
6114;DHT22;3087;48.392;10.836;2023-07-09T05:16:44;20.80;91.80
6114;DHT22;3087;48.392;10.836;2023-07-09T05:19:11;20.80;91.90
6114;DHT22;3087;48.392;10.836;2023-07-09T05:21:36;20.90;91.80
6114;DHT22;3087;48.392;10.836;2023-07-09T05:24:03;20.90;91.60
6114;DHT22;3087;48.392;10.836;2023-07-09T05:26:32;21.00;91.80
6114;DHT22;3087;48.392;10.836;2023-07-09T05:28:58;21.10;91.80
6114;DHT22;3087;48.392;10.836;2023-07-09T05:31:24;21.30;91.60
6114;DHT22;3087;48.392;10.836;2023-07-09T05:33:50;21.40;91.90
6114;DHT22;3087;48.392;10.836;2023-07-09T05:36:16;21.50;91.60
6114;DHT22;3087;48.392;10.836;2023-07-09T05:38:43;21.40;91.50
6114;DHT22;3087;48.392;10.836;2023-07-09T05:41:13;21.70;91.30
6114;DHT22;3087;48.392;10.836;2023-07-09T05:43:43;21.80;91.30
6114;DHT22;3087;48.392;10.836;2023-07-09T05:46:14;21.90;91.50
6114;DHT22;3087;48.392;10.836;2023-07-09T05:48:40;21.70;91.10
6114;DHT22;3087;48.392;10.836;2023-07-09T05:51:06;22.20;91.10
6114;DHT22;3087;48.392;10.836;2023-07-09T05:53:35;22.30;90.90
6114;DHT22;3087;48.392;10.836;2023-07-09T05:56:00;22.40;90.80
6114;DHT22;3087;48.392;10.836;2023-07-09T05:58:26;22.50;90.80
6114;DHT22;3087;48.392;10.836;2023-07-09T06:00:53;22.60;91.00
6114;DHT22;3087;48.392;10.836;2023-07-09T06:03:20;22.70;91.20
6114;DHT22;3087;48.392;10.836;2023-07-09T06:05:47;22.80;91.40
6114;DHT22;3087;48.392;10.836;2023-07-09T06:08:16;22.90;91.20
6114;DHT22;3087;48.392;10.836;2023-07-09T06:11:00;23.00;91.30
6114;DHT22;3087;48.392;10.836;2023-07-09T06:13:28;23.10;91.40
6114;DHT22;3087;48.392;10.836;2023-07-09T06:15:56;23.20;91.30
6114;DHT22;3087;48.392;10.836;2023-07-09T06:18:22;23.30;91.00
6114;DHT22;3087;48.392;10.836;2023-07-09T06:20:50;23.40;91.20
6114;DHT22;3087;48.392;10.836;2023-07-09T06:23:17;23.60;91.00
6114;DHT22;3087;48.392;10.836;2023-07-09T06:25:43;23.80;90.90
6114;DHT22;3087;48.392;10.836;2023-07-09T06:28:12;23.90;90.60
6114;DHT22;3087;48.392;10.836;2023-07-09T06:30:37;24.00;90.60
6114;DHT22;3087;48.392;10.836;2023-07-09T06:33:03;24.10;90.60
6114;DHT22;3087;48.392;10.836;2023-07-09T06:35:29;24.20;90.30
6114;DHT22;3087;48.392;10.836;2023-07-09T06:37:54;24.30;90.50
6114;DHT22;3087;48.392;10.836;2023-07-09T06:40:20;24.50;90.10
6114;DHT22;3087;48.392;10.836;2023-07-09T06:42:46;24.80;90.00
6114;DHT22;3087;48.392;10.836;2023-07-09T06:45:11;25.00;89.60
6114;DHT22;3087;48.392;10.836;2023-07-09T06:47:37;25.30;89.40
6114;DHT22;3087;48.392;10.836;2023-07-09T06:50:03;25.30;88.90
6114;DHT22;3087;48.392;10.836;2023-07-09T06:52:29;25.40;88.10
6114;DHT22;3087;48.392;10.836;2023-07-09T06:54:54;25.50;88.00
6114;DHT22;3087;48.392;10.836;2023-07-09T06:57:20;25.70;87.90
6114;DHT22;3087;48.392;10.836;2023-07-09T06:59:46;25.80;88.10
6114;DHT22;3087;48.392;10.836;2023-07-09T07:02:11;25.90;88.00
6114;DHT22;3087;48.392;10.836;2023-07-09T07:04:37;25.90;86.90
6114;DHT22;3087;48.392;10.836;2023-07-09T07:07:03;26.00;86.50
6114;DHT22;3087;48.392;10.836;2023-07-09T07:09:28;26.20;86.40
6114;DHT22;3087;48.392;10.836;2023-07-09T07:11:54;26.30;86.70
6114;DHT22;3087;48.392;10.836;2023-07-09T07:14:20;26.40;85.70
6114;DHT22;3087;48.392;10.836;2023-07-09T07:16:45;26.60;85.30
6114;DHT22;3087;48.392;10.836;2023-07-09T07:19:11;26.70;84.20
6114;DHT22;3087;48.392;10.836;2023-07-09T07:21:36;26.80;84.50
6114;DHT22;3087;48.392;10.836;2023-07-09T07:24:02;26.80;84.10
6114;DHT22;3087;48.392;10.836;2023-07-09T07:26:29;26.90;83.90
6114;DHT22;3087;48.392;10.836;2023-07-09T07:28:54;26.90;83.80
6114;DHT22;3087;48.392;10.836;2023-07-09T07:31:20;26.90;84.00
6114;DHT22;3087;48.392;10.836;2023-07-09T07:33:45;27.00;83.50
6114;DHT22;3087;48.392;10.836;2023-07-09T07:36:11;27.00;84.00
6114;DHT22;3087;48.392;10.836;2023-07-09T07:38:37;27.10;84.10
6114;DHT22;3087;48.392;10.836;2023-07-09T07:41:03;27.30;83.80
6114;DHT22;3087;48.392;10.836;2023-07-09T07:43:28;27.50;83.40
6114;DHT22;3087;48.392;10.836;2023-07-09T07:45:54;27.50;83.00
6114;DHT22;3087;48.392;10.836;2023-07-09T07:48:20;27.50;82.70
6114;DHT22;3087;48.392;10.836;2023-07-09T07:50:46;27.60;82.10
6114;DHT22;3087;48.392;10.836;2023-07-09T07:53:14;27.60;82.40
6114;DHT22;3087;48.392;10.836;2023-07-09T07:55:40;27.70;82.10
6114;DHT22;3087;48.392;10.836;2023-07-09T07:58:05;27.80;81.40
6114;DHT22;3087;48.392;10.836;2023-07-09T08:00:31;27.70;81.00
6114;DHT22;3087;48.392;10.836;2023-07-09T08:02:57;27.80;81.30
6114;DHT22;3087;48.392;10.836;2023-07-09T08:05:23;27.80;81.00
6114;DHT22;3087;48.392;10.836;2023-07-09T08:07:50;28.00;80.00
6114;DHT22;3087;48.392;10.836;2023-07-09T08:10:15;28.10;80.80
6114;DHT22;3087;48.392;10.836;2023-07-09T08:12:41;28.10;80.20
6114;DHT22;3087;48.392;10.836;2023-07-09T08:15:07;28.20;80.30
6114;DHT22;3087;48.392;10.836;2023-07-09T08:17:33;28.40;80.50
6114;DHT22;3087;48.392;10.836;2023-07-09T08:19:59;28.50;80.00
6114;DHT22;3087;48.392;10.836;2023-07-09T08:22:25;28.70;79.80
6114;DHT22;3087;48.392;10.836;2023-07-09T08:24:51;28.80;79.70
6114;DHT22;3087;48.392;10.836;2023-07-09T08:27:17;28.90;79.00
6114;DHT22;3087;48.392;10.836;2023-07-09T08:29:43;28.90;78.70
6114;DHT22;3087;48.392;10.836;2023-07-09T08:32:10;28.90;78.60
6114;DHT22;3087;48.392;10.836;2023-07-09T08:34:37;28.90;78.10
6114;DHT22;3087;48.392;10.836;2023-07-09T08:37:05;28.80;78.10
6114;DHT22;3087;48.392;10.836;2023-07-09T08:39:31;28.80;77.80
6114;DHT22;3087;48.392;10.836;2023-07-09T08:42:04;28.90;77.90
6114;DHT22;3087;48.392;10.836;2023-07-09T08:44:38;29.00;77.30
6114;DHT22;3087;48.392;10.836;2023-07-09T08:50:01;29.40;77.80
6114;DHT22;3087;48.392;10.836;2023-07-09T08:52:34;29.50;77.40
6114;DHT22;3087;48.392;10.836;2023-07-09T08:55:06;29.50;76.70
6114;DHT22;3087;48.392;10.836;2023-07-09T08:57:39;29.60;75.90
6114;DHT22;3087;48.392;10.836;2023-07-09T09:02:50;29.70;73.90
6114;DHT22;3087;48.392;10.836;2023-07-09T09:05:19;29.80;74.20
6114;DHT22;3087;48.392;10.836;2023-07-09T09:07:50;29.90;73.60
6114;DHT22;3087;48.392;10.836;2023-07-09T09:10:57;30.10;73.50
6114;DHT22;3087;48.392;10.836;2023-07-09T09:13:27;30.20;73.90
6114;DHT22;3087;48.392;10.836;2023-07-09T09:15:56;30.30;72.20
6114;DHT22;3087;48.392;10.836;2023-07-09T09:18:39;30.30;73.50
6114;DHT22;3087;48.392;10.836;2023-07-09T09:21:35;30.40;72.40
6114;DHT22;3087;48.392;10.836;2023-07-09T09:24:30;30.50;70.30
6114;DHT22;3087;48.392;10.836;2023-07-09T09:26:58;30.60;71.30
6114;DHT22;3087;48.392;10.836;2023-07-09T09:29:25;30.70;69.10
6114;DHT22;3087;48.392;10.836;2023-07-09T09:31:54;30.80;69.60
6114;DHT22;3087;48.392;10.836;2023-07-09T09:34:27;30.80;68.70
6114;DHT22;3087;48.392;10.836;2023-07-09T09:36:54;30.90;69.20
6114;DHT22;3087;48.392;10.836;2023-07-09T09:39:20;30.90;69.90
6114;DHT22;3087;48.392;10.836;2023-07-09T09:41:46;31.10;70.20
6114;DHT22;3087;48.392;10.836;2023-07-09T09:44:20;31.00;69.60
6114;DHT22;3087;48.392;10.836;2023-07-09T09:46:48;31.10;70.10
6114;DHT22;3087;48.392;10.836;2023-07-09T09:49:14;31.30;68.80
6114;DHT22;3087;48.392;10.836;2023-07-09T09:51:40;31.50;69.00
6114;DHT22;3087;48.392;10.836;2023-07-09T09:54:34;31.50;67.50
6114;DHT22;3087;48.392;10.836;2023-07-09T09:57:00;31.50;67.60
6114;DHT22;3087;48.392;10.836;2023-07-09T09:59:32;31.60;66.60
6114;DHT22;3087;48.392;10.836;2023-07-09T10:02:23;31.50;67.70
6114;DHT22;3087;48.392;10.836;2023-07-09T10:04:51;31.60;67.90
6114;DHT22;3087;48.392;10.836;2023-07-09T10:07:34;31.50;67.20
6114;DHT22;3087;48.392;10.836;2023-07-09T10:10:01;31.70;67.70
6114;DHT22;3087;48.392;10.836;2023-07-09T10:16:23;32.10;66.10
6114;DHT22;3087;48.392;10.836;2023-07-09T10:21:41;32.50;67.20
6114;DHT22;3087;48.392;10.836;2023-07-09T10:24:45;32.50;66.10
6114;DHT22;3087;48.392;10.836;2023-07-09T10:27:16;32.50;65.90
6114;DHT22;3087;48.392;10.836;2023-07-09T10:35:05;32.60;67.20
6114;DHT22;3087;48.392;10.836;2023-07-09T10:37:49;32.20;65.90
6114;DHT22;3087;48.392;10.836;2023-07-09T10:40:21;32.20;67.50
6114;DHT22;3087;48.392;10.836;2023-07-09T10:42:57;32.30;67.70
6114;DHT22;3087;48.392;10.836;2023-07-09T10:45:33;32.40;66.40
6114;DHT22;3087;48.392;10.836;2023-07-09T10:48:18;32.50;68.10
6114;DHT22;3087;48.392;10.836;2023-07-09T10:50:51;32.60;66.60
6114;DHT22;3087;48.392;10.836;2023-07-09T10:53:37;32.70;66.90
6114;DHT22;3087;48.392;10.836;2023-07-09T10:56:10;32.90;63.60
6114;DHT22;3087;48.392;10.836;2023-07-09T10:58:57;33.10;63.50
6114;DHT22;3087;48.392;10.836;2023-07-09T11:01:38;32.80;61.60
6114;DHT22;3087;48.392;10.836;2023-07-09T11:04:10;32.80;61.90
6114;DHT22;3087;48.392;10.836;2023-07-09T11:06:44;32.90;64.10
6114;DHT22;3087;48.392;10.836;2023-07-09T11:12:33;33.30;62.20
6114;DHT22;3087;48.392;10.836;2023-07-09T11:15:20;33.50;61.30
6114;DHT22;3087;48.392;10.836;2023-07-09T11:17:48;33.70;62.00
6114;DHT22;3087;48.392;10.836;2023-07-09T11:20:34;33.80;64.10
6114;DHT22;3087;48.392;10.836;2023-07-09T11:23:03;33.60;60.10
6114;DHT22;3087;48.392;10.836;2023-07-09T11:25:43;33.80;61.30
6114;DHT22;3087;48.392;10.836;2023-07-09T11:28:09;34.00;59.60
6114;DHT22;3087;48.392;10.836;2023-07-09T11:30:46;34.70;61.90
6114;DHT22;3087;48.392;10.836;2023-07-09T11:33:26;35.70;61.20
6114;DHT22;3087;48.392;10.836;2023-07-09T11:35:54;36.50;60.00
6114;DHT22;3087;48.392;10.836;2023-07-09T11:38:42;37.10;59.40
6114;DHT22;3087;48.392;10.836;2023-07-09T11:41:46;38.10;59.90
6114;DHT22;3087;48.392;10.836;2023-07-09T11:44:17;38.70;57.00
6114;DHT22;3087;48.392;10.836;2023-07-09T11:47:14;38.90;57.40
6114;DHT22;3087;48.392;10.836;2023-07-09T11:49:56;39.20;57.00
6114;DHT22;3087;48.392;10.836;2023-07-09T11:52:47;39.30;55.30
6114;DHT22;3087;48.392;10.836;2023-07-09T11:57:56;39.80;56.70
6114;DHT22;3087;48.392;10.836;2023-07-09T12:00:22;39.70;53.40
6114;DHT22;3087;48.392;10.836;2023-07-09T12:02:48;40.00;56.40
6114;DHT22;3087;48.392;10.836;2023-07-09T12:05:19;40.70;54.70
6114;DHT22;3087;48.392;10.836;2023-07-09T12:07:46;41.30;55.30
6114;DHT22;3087;48.392;10.836;2023-07-09T12:10:23;41.80;54.20
6114;DHT22;3087;48.392;10.836;2023-07-09T12:12:57;41.10;53.00
6114;DHT22;3087;48.392;10.836;2023-07-09T12:15:26;40.50;53.40
6114;DHT22;3087;48.392;10.836;2023-07-09T12:17:57;40.40;54.10
6114;DHT22;3087;48.392;10.836;2023-07-09T12:20:24;40.40;53.50
6114;DHT22;3087;48.392;10.836;2023-07-09T12:22:49;40.10;51.50
6114;DHT22;3087;48.392;10.836;2023-07-09T12:25:24;40.40;52.00
6114;DHT22;3087;48.392;10.836;2023-07-09T12:27:50;41.00;50.80
6114;DHT22;3087;48.392;10.836;2023-07-09T12:30:16;41.70;51.50
6114;DHT22;3087;48.392;10.836;2023-07-09T12:32:49;41.60;50.00
6114;DHT22;3087;48.392;10.836;2023-07-09T12:35:18;42.00;51.90
6114;DHT22;3087;48.392;10.836;2023-07-09T12:37:47;42.10;52.30
6114;DHT22;3087;48.392;10.836;2023-07-09T12:40:15;42.10;49.80
6114;DHT22;3087;48.392;10.836;2023-07-09T12:42:43;42.00;50.00
6114;DHT22;3087;48.392;10.836;2023-07-09T12:45:20;41.90;49.80
6114;DHT22;3087;48.392;10.836;2023-07-09T12:47:47;41.90;48.40
6114;DHT22;3087;48.392;10.836;2023-07-09T12:50:20;41.90;48.10
6114;DHT22;3087;48.392;10.836;2023-07-09T12:52:48;42.20;48.80
6114;DHT22;3087;48.392;10.836;2023-07-09T12:55:22;43.40;48.70
6114;DHT22;3087;48.392;10.836;2023-07-09T12:57:48;42.80;48.50
6114;DHT22;3087;48.392;10.836;2023-07-09T13:00:15;43.00;47.00
6114;DHT22;3087;48.392;10.836;2023-07-09T13:02:41;42.50;47.10
6114;DHT22;3087;48.392;10.836;2023-07-09T13:05:20;42.70;47.10
6114;DHT22;3087;48.392;10.836;2023-07-09T13:07:49;42.80;47.30
6114;DHT22;3087;48.392;10.836;2023-07-09T13:10:19;42.80;47.90
6114;DHT22;3087;48.392;10.836;2023-07-09T13:12:51;42.90;48.70
6114;DHT22;3087;48.392;10.836;2023-07-09T13:16:14;42.80;47.80
6114;DHT22;3087;48.392;10.836;2023-07-09T13:18:16;42.80;48.60
6114;DHT22;3087;48.392;10.836;2023-07-09T13:20:44;42.40;46.50
6114;DHT22;3087;48.392;10.836;2023-07-09T13:23:14;42.20;46.80
6114;DHT22;3087;48.392;10.836;2023-07-09T13:25:41;41.80;46.10
6114;DHT22;3087;48.392;10.836;2023-07-09T13:28:33;40.80;47.10
6114;DHT22;3087;48.392;10.836;2023-07-09T13:31:16;40.40;47.10
6114;DHT22;3087;48.392;10.836;2023-07-09T13:33:44;40.80;47.80
6114;DHT22;3087;48.392;10.836;2023-07-09T13:36:10;40.70;46.60
6114;DHT22;3087;48.392;10.836;2023-07-09T13:38:36;41.10;46.10
6114;DHT22;3087;48.392;10.836;2023-07-09T13:41:13;41.10;46.60
6114;DHT22;3087;48.392;10.836;2023-07-09T13:43:43;41.10;46.90
6114;DHT22;3087;48.392;10.836;2023-07-09T13:46:09;41.30;47.10
6114;DHT22;3087;48.392;10.836;2023-07-09T13:48:37;41.20;46.70
6114;DHT22;3087;48.392;10.836;2023-07-09T13:51:22;41.00;47.70
6114;DHT22;3087;48.392;10.836;2023-07-09T13:53:50;41.60;47.90
6114;DHT22;3087;48.392;10.836;2023-07-09T13:56:17;41.70;45.50
6114;DHT22;3087;48.392;10.836;2023-07-09T13:58:42;41.70;45.40
6114;DHT22;3087;48.392;10.836;2023-07-09T14:01:15;42.00;45.60
6114;DHT22;3087;48.392;10.836;2023-07-09T14:03:41;42.10;45.90
6114;DHT22;3087;48.392;10.836;2023-07-09T14:06:16;41.90;45.10
6114;DHT22;3087;48.392;10.836;2023-07-09T14:08:41;42.00;45.40
6114;DHT22;3087;48.392;10.836;2023-07-09T14:11:15;42.30;46.30
6114;DHT22;3087;48.392;10.836;2023-07-09T14:13:41;42.20;46.40
6114;DHT22;3087;48.392;10.836;2023-07-09T14:16:10;42.10;45.70
6114;DHT22;3087;48.392;10.836;2023-07-09T14:18:37;42.50;45.30
6114;DHT22;3087;48.392;10.836;2023-07-09T14:21:13;42.50;45.50
6114;DHT22;3087;48.392;10.836;2023-07-09T14:23:39;42.30;46.10
6114;DHT22;3087;48.392;10.836;2023-07-09T14:26:05;41.80;46.10
6114;DHT22;3087;48.392;10.836;2023-07-09T14:28:30;41.80;45.70
6114;DHT22;3087;48.392;10.836;2023-07-09T14:30:56;41.60;45.70
6114;DHT22;3087;48.392;10.836;2023-07-09T14:33:22;40.70;45.80
6114;DHT22;3087;48.392;10.836;2023-07-09T14:35:49;40.10;46.30
6114;DHT22;3087;48.392;10.836;2023-07-09T14:40:43;39.80;47.70
6114;DHT22;3087;48.392;10.836;2023-07-09T14:43:10;39.80;46.90
6114;DHT22;3087;48.392;10.836;2023-07-09T14:45:37;39.70;46.70
6114;DHT22;3087;48.392;10.836;2023-07-09T14:48:10;39.60;47.30
6114;DHT22;3087;48.392;10.836;2023-07-09T14:50:35;40.00;46.40
6114;DHT22;3087;48.392;10.836;2023-07-09T14:53:02;40.00;46.90
6114;DHT22;3087;48.392;10.836;2023-07-09T14:55:28;40.60;46.40
6114;DHT22;3087;48.392;10.836;2023-07-09T14:57:55;40.80;46.70
6114;DHT22;3087;48.392;10.836;2023-07-09T15:00:22;41.00;46.50
6114;DHT22;3087;48.392;10.836;2023-07-09T15:02:53;40.90;46.80
6114;DHT22;3087;48.392;10.836;2023-07-09T15:05:23;40.40;47.20
6114;DHT22;3087;48.392;10.836;2023-07-09T15:07:49;40.10;46.40
6114;DHT22;3087;48.392;10.836;2023-07-09T15:10:18;40.20;47.10
6114;DHT22;3087;48.392;10.836;2023-07-09T15:12:44;40.70;47.00
6114;DHT22;3087;48.392;10.836;2023-07-09T15:15:37;40.90;47.70
6114;DHT22;3087;48.392;10.836;2023-07-09T15:18:11;40.70;47.10
6114;DHT22;3087;48.392;10.836;2023-07-09T15:20:37;40.40;46.00
6114;DHT22;3087;48.392;10.836;2023-07-09T15:23:04;40.60;47.30
6114;DHT22;3087;48.392;10.836;2023-07-09T15:25:30;41.20;47.20
6114;DHT22;3087;48.392;10.836;2023-07-09T15:27:56;41.40;47.30
6114;DHT22;3087;48.392;10.836;2023-07-09T15:30:26;41.40;45.80
6114;DHT22;3087;48.392;10.836;2023-07-09T15:32:59;41.50;46.10
6114;DHT22;3087;48.392;10.836;2023-07-09T15:35:29;41.70;46.20
6114;DHT22;3087;48.392;10.836;2023-07-09T15:37:57;41.50;47.00
6114;DHT22;3087;48.392;10.836;2023-07-09T15:40:28;41.20;47.60
6114;DHT22;3087;48.392;10.836;2023-07-09T15:43:05;41.20;47.10
6114;DHT22;3087;48.392;10.836;2023-07-09T15:45:37;40.70;47.30
6114;DHT22;3087;48.392;10.836;2023-07-09T15:48:05;40.40;47.90
6114;DHT22;3087;48.392;10.836;2023-07-09T15:50:32;40.20;47.50
6114;DHT22;3087;48.392;10.836;2023-07-09T15:52:59;40.20;47.90
6114;DHT22;3087;48.392;10.836;2023-07-09T15:55:26;39.80;47.30
6114;DHT22;3087;48.392;10.836;2023-07-09T15:57:54;39.50;47.80
6114;DHT22;3087;48.392;10.836;2023-07-09T16:00:26;39.80;48.20
6114;DHT22;3087;48.392;10.836;2023-07-09T16:02:53;39.20;47.00
6114;DHT22;3087;48.392;10.836;2023-07-09T16:05:30;39.50;47.20
6114;DHT22;3087;48.392;10.836;2023-07-09T16:07:59;39.90;47.50
6114;DHT22;3087;48.392;10.836;2023-07-09T16:10:27;40.30;48.70
6114;DHT22;3087;48.392;10.836;2023-07-09T16:12:56;40.80;48.00
6114;DHT22;3087;48.392;10.836;2023-07-09T16:15:23;40.90;47.30
6114;DHT22;3087;48.392;10.836;2023-07-09T16:17:51;40.90;46.50
6114;DHT22;3087;48.392;10.836;2023-07-09T16:20:21;40.50;47.60
6114;DHT22;3087;48.392;10.836;2023-07-09T16:22:50;40.50;46.40
6114;DHT22;3087;48.392;10.836;2023-07-09T16:25:19;40.40;46.00
6114;DHT22;3087;48.392;10.836;2023-07-09T16:27:46;40.60;47.70
6114;DHT22;3087;48.392;10.836;2023-07-09T16:30:23;40.50;46.80
6114;DHT22;3087;48.392;10.836;2023-07-09T16:32:50;40.10;46.80